sensor_id;sensor_type;location;lat;lon;timestamp;temperature;humidity
35804;DHT22;21924;51.934;7.414;2023-07-13T00:00:30;15.80;99.90
35804;DHT22;21924;51.934;7.414;2023-07-13T00:03:16;15.70;99.90
35804;DHT22;21924;51.934;7.414;2023-07-13T00:06:01;15.70;99.90
35804;DHT22;21924;51.934;7.414;2023-07-13T00:08:46;15.70;99.90
35804;DHT22;21924;51.934;7.414;2023-07-13T00:11:31;15.70;99.90
35804;DHT22;21924;51.934;7.414;2023-07-13T00:14:15;15.60;99.90
35804;DHT22;21924;51.934;7.414;2023-07-13T00:17:00;15.60;99.90
35804;DHT22;21924;51.934;7.414;2023-07-13T00:19:44;15.60;99.90
35804;DHT22;21924;51.934;7.414;2023-07-13T00:22:29;15.50;99.90
35804;DHT22;21924;51.934;7.414;2023-07-13T00:25:13;15.40;99.90
35804;DHT22;21924;51.934;7.414;2023-07-13T00:27:58;15.40;99.90
35804;DHT22;21924;51.934;7.414;2023-07-13T00:30:42;15.40;99.90
35804;DHT22;21924;51.934;7.414;2023-07-13T00:33:28;15.40;99.90
35804;DHT22;21924;51.934;7.414;2023-07-13T00:36:12;15.30;99.90
35804;DHT22;21924;51.934;7.414;2023-07-13T00:38:56;15.30;99.90
35804;DHT22;21924;51.934;7.414;2023-07-13T00:41:40;15.20;99.90
35804;DHT22;21924;51.934;7.414;2023-07-13T00:44:24;15.30;99.90
35804;DHT22;21924;51.934;7.414;2023-07-13T00:47:08;15.20;99.90
35804;DHT22;21924;51.934;7.414;2023-07-13T00:49:52;15.10;99.90
35804;DHT22;21924;51.934;7.414;2023-07-13T00:52:38;15.00;99.90
35804;DHT22;21924;51.934;7.414;2023-07-13T00:55:24;15.00;99.90
35804;DHT22;21924;51.934;7.414;2023-07-13T00:58:08;15.00;99.90
35804;DHT22;21924;51.934;7.414;2023-07-13T01:00:53;14.90;99.90
35804;DHT22;21924;51.934;7.414;2023-07-13T01:03:37;14.90;99.90
35804;DHT22;21924;51.934;7.414;2023-07-13T01:06:21;14.90;99.90
35804;DHT22;21924;51.934;7.414;2023-07-13T01:09:06;14.90;99.90
35804;DHT22;21924;51.934;7.414;2023-07-13T01:11:51;14.90;99.90
35804;DHT22;21924;51.934;7.414;2023-07-13T01:14:35;14.80;99.90
35804;DHT22;21924;51.934;7.414;2023-07-13T01:17:20;14.80;99.90
35804;DHT22;21924;51.934;7.414;2023-07-13T01:20:04;14.70;99.90
35804;DHT22;21924;51.934;7.414;2023-07-13T01:22:49;14.70;99.90
35804;DHT22;21924;51.934;7.414;2023-07-13T01:25:34;14.60;99.90
35804;DHT22;21924;51.934;7.414;2023-07-13T01:28:18;14.70;99.90
35804;DHT22;21924;51.934;7.414;2023-07-13T01:31:03;14.70;99.90
35804;DHT22;21924;51.934;7.414;2023-07-13T01:33:47;14.50;99.90
35804;DHT22;21924;51.934;7.414;2023-07-13T01:36:31;14.60;99.90
35804;DHT22;21924;51.934;7.414;2023-07-13T01:39:15;14.50;99.90
35804;DHT22;21924;51.934;7.414;2023-07-13T01:42:00;14.40;99.90
35804;DHT22;21924;51.934;7.414;2023-07-13T01:44:45;14.50;99.90
35804;DHT22;21924;51.934;7.414;2023-07-13T01:47:29;14.40;99.90
35804;DHT22;21924;51.934;7.414;2023-07-13T01:50:15;14.30;99.90
35804;DHT22;21924;51.934;7.414;2023-07-13T01:52:59;14.30;99.90
35804;DHT22;21924;51.934;7.414;2023-07-13T01:55:44;14.30;99.90
35804;DHT22;21924;51.934;7.414;2023-07-13T01:58:28;14.30;99.90
35804;DHT22;21924;51.934;7.414;2023-07-13T02:01:12;14.30;99.90
35804;DHT22;21924;51.934;7.414;2023-07-13T02:03:56;14.20;99.90
35804;DHT22;21924;51.934;7.414;2023-07-13T02:06:40;14.20;99.90
35804;DHT22;21924;51.934;7.414;2023-07-13T02:09:24;14.20;99.90
35804;DHT22;21924;51.934;7.414;2023-07-13T02:12:08;14.20;99.90
35804;DHT22;21924;51.934;7.414;2023-07-13T02:14:53;14.20;99.90
35804;DHT22;21924;51.934;7.414;2023-07-13T02:17:37;14.20;99.90
35804;DHT22;21924;51.934;7.414;2023-07-13T02:20:21;14.10;99.90
35804;DHT22;21924;51.934;7.414;2023-07-13T02:23:05;14.10;99.90
35804;DHT22;21924;51.934;7.414;2023-07-13T02:25:54;14.10;99.90
35804;DHT22;21924;51.934;7.414;2023-07-13T02:28:38;14.00;99.90
35804;DHT22;21924;51.934;7.414;2023-07-13T02:31:22;14.00;99.90
35804;DHT22;21924;51.934;7.414;2023-07-13T02:34:07;14.00;99.90
35804;DHT22;21924;51.934;7.414;2023-07-13T02:36:51;13.90;99.90
35804;DHT22;21924;51.934;7.414;2023-07-13T02:39:35;14.00;99.90
35804;DHT22;21924;51.934;7.414;2023-07-13T02:42:19;13.90;99.90
35804;DHT22;21924;51.934;7.414;2023-07-13T02:45:04;13.80;99.90
35804;DHT22;21924;51.934;7.414;2023-07-13T02:47:48;13.80;99.90
35804;DHT22;21924;51.934;7.414;2023-07-13T02:50:32;13.80;99.90
35804;DHT22;21924;51.934;7.414;2023-07-13T02:53:16;13.80;99.90
35804;DHT22;21924;51.934;7.414;2023-07-13T02:56:00;13.70;99.90
35804;DHT22;21924;51.934;7.414;2023-07-13T02:58:44;13.70;99.90
35804;DHT22;21924;51.934;7.414;2023-07-13T03:01:28;13.70;99.90
35804;DHT22;21924;51.934;7.414;2023-07-13T03:04:13;13.60;99.90
35804;DHT22;21924;51.934;7.414;2023-07-13T03:06:58;13.70;99.90
35804;DHT22;21924;51.934;7.414;2023-07-13T03:09:42;13.60;99.90
35804;DHT22;21924;51.934;7.414;2023-07-13T03:12:26;13.60;99.90
35804;DHT22;21924;51.934;7.414;2023-07-13T03:15:10;13.60;99.90
35804;DHT22;21924;51.934;7.414;2023-07-13T03:17:54;13.60;99.90
35804;DHT22;21924;51.934;7.414;2023-07-13T03:20:38;13.70;99.90
35804;DHT22;21924;51.934;7.414;2023-07-13T03:23:22;13.70;99.90
35804;DHT22;21924;51.934;7.414;2023-07-13T03:26:10;13.70;99.90
35804;DHT22;21924;51.934;7.414;2023-07-13T03:28:54;13.60;99.90
35804;DHT22;21924;51.934;7.414;2023-07-13T03:31:39;13.60;99.90
35804;DHT22;21924;51.934;7.414;2023-07-13T03:34:23;13.60;99.90
35804;DHT22;21924;51.934;7.414;2023-07-13T03:37:08;13.60;99.90
35804;DHT22;21924;51.934;7.414;2023-07-13T03:39:52;13.50;99.90
35804;DHT22;21924;51.934;7.414;2023-07-13T03:42:36;13.60;99.90
35804;DHT22;21924;51.934;7.414;2023-07-13T03:45:20;13.60;99.90
35804;DHT22;21924;51.934;7.414;2023-07-13T03:48:04;13.60;99.90
35804;DHT22;21924;51.934;7.414;2023-07-13T03:50:49;13.60;99.90
35804;DHT22;21924;51.934;7.414;2023-07-13T03:53:33;13.60;99.90
35804;DHT22;21924;51.934;7.414;2023-07-13T03:56:17;13.60;99.90
35804;DHT22;21924;51.934;7.414;2023-07-13T03:59:02;13.60;99.90
35804;DHT22;21924;51.934;7.414;2023-07-13T04:01:46;13.70;99.90
35804;DHT22;21924;51.934;7.414;2023-07-13T04:04:30;13.70;99.90
35804;DHT22;21924;51.934;7.414;2023-07-13T04:07:14;13.70;99.90
35804;DHT22;21924;51.934;7.414;2023-07-13T04:09:59;13.80;99.90
35804;DHT22;21924;51.934;7.414;2023-07-13T04:12:43;13.80;99.90
35804;DHT22;21924;51.934;7.414;2023-07-13T04:15:29;13.90;99.90
35804;DHT22;21924;51.934;7.414;2023-07-13T04:18:14;14.00;99.90
35804;DHT22;21924;51.934;7.414;2023-07-13T04:20:58;14.10;99.90
35804;DHT22;21924;51.934;7.414;2023-07-13T04:23:43;14.20;99.90
35804;DHT22;21924;51.934;7.414;2023-07-13T04:26:27;14.30;99.90
35804;DHT22;21924;51.934;7.414;2023-07-13T04:29:11;14.70;99.90
35804;DHT22;21924;51.934;7.414;2023-07-13T04:31:55;15.10;99.90
35804;DHT22;21924;51.934;7.414;2023-07-13T04:34:39;15.50;99.90
35804;DHT22;21924;51.934;7.414;2023-07-13T04:37:23;15.60;99.90
35804;DHT22;21924;51.934;7.414;2023-07-13T04:40:08;15.70;99.90
35804;DHT22;21924;51.934;7.414;2023-07-13T04:42:56;15.70;99.90
35804;DHT22;21924;51.934;7.414;2023-07-13T04:45:41;15.60;99.90
35804;DHT22;21924;51.934;7.414;2023-07-13T04:48:25;15.60;99.90
35804;DHT22;21924;51.934;7.414;2023-07-13T04:51:09;15.70;99.90
35804;DHT22;21924;51.934;7.414;2023-07-13T04:53:54;15.80;99.90
35804;DHT22;21924;51.934;7.414;2023-07-13T04:56:38;15.70;99.90
35804;DHT22;21924;51.934;7.414;2023-07-13T04:59:23;15.60;99.90
35804;DHT22;21924;51.934;7.414;2023-07-13T05:02:07;15.70;99.90
35804;DHT22;21924;51.934;7.414;2023-07-13T05:04:51;15.70;99.90
35804;DHT22;21924;51.934;7.414;2023-07-13T05:07:36;15.60;99.90
35804;DHT22;21924;51.934;7.414;2023-07-13T05:10:21;15.70;99.90
35804;DHT22;21924;51.934;7.414;2023-07-13T05:13:05;15.60;99.90
35804;DHT22;21924;51.934;7.414;2023-07-13T05:15:56;15.60;99.90
35804;DHT22;21924;51.934;7.414;2023-07-13T05:18:40;15.70;99.90
35804;DHT22;21924;51.934;7.414;2023-07-13T05:21:24;15.80;99.90
35804;DHT22;21924;51.934;7.414;2023-07-13T05:24:08;15.90;99.90
35804;DHT22;21924;51.934;7.414;2023-07-13T05:26:53;16.00;99.90
35804;DHT22;21924;51.934;7.414;2023-07-13T05:29:37;16.10;99.90
35804;DHT22;21924;51.934;7.414;2023-07-13T05:32:22;16.20;99.90
35804;DHT22;21924;51.934;7.414;2023-07-13T05:35:06;16.30;99.90
35804;DHT22;21924;51.934;7.414;2023-07-13T05:37:50;16.20;99.90
35804;DHT22;21924;51.934;7.414;2023-07-13T05:40:34;16.20;99.90
35804;DHT22;21924;51.934;7.414;2023-07-13T05:43:18;16.00;99.90
35804;DHT22;21924;51.934;7.414;2023-07-13T05:46:03;16.10;99.90
35804;DHT22;21924;51.934;7.414;2023-07-13T05:48:47;16.10;99.90
35804;DHT22;21924;51.934;7.414;2023-07-13T05:51:31;16.10;99.90
35804;DHT22;21924;51.934;7.414;2023-07-13T05:54:15;16.10;99.90
35804;DHT22;21924;51.934;7.414;2023-07-13T05:57:00;16.20;99.90
35804;DHT22;21924;51.934;7.414;2023-07-13T05:59:44;16.20;99.90
35804;DHT22;21924;51.934;7.414;2023-07-13T06:02:28;16.30;99.90
35804;DHT22;21924;51.934;7.414;2023-07-13T06:05:12;16.40;99.90
35804;DHT22;21924;51.934;7.414;2023-07-13T06:07:57;16.40;99.90
35804;DHT22;21924;51.934;7.414;2023-07-13T06:10:40;16.50;99.90
35804;DHT22;21924;51.934;7.414;2023-07-13T06:13:25;16.60;99.90
35804;DHT22;21924;51.934;7.414;2023-07-13T06:16:08;16.60;99.90
35804;DHT22;21924;51.934;7.414;2023-07-13T06:18:53;16.80;99.90
35804;DHT22;21924;51.934;7.414;2023-07-13T06:21:37;16.80;99.90
35804;DHT22;21924;51.934;7.414;2023-07-13T06:24:21;16.90;99.90
35804;DHT22;21924;51.934;7.414;2023-07-13T06:27:05;16.90;99.90
35804;DHT22;21924;51.934;7.414;2023-07-13T06:29:50;17.00;99.90
35804;DHT22;21924;51.934;7.414;2023-07-13T06:32:34;17.10;99.90
35804;DHT22;21924;51.934;7.414;2023-07-13T06:35:18;17.20;99.90
35804;DHT22;21924;51.934;7.414;2023-07-13T06:38:02;17.10;99.90
35804;DHT22;21924;51.934;7.414;2023-07-13T06:40:47;17.20;99.90
35804;DHT22;21924;51.934;7.414;2023-07-13T06:43:31;17.20;99.90
35804;DHT22;21924;51.934;7.414;2023-07-13T06:46:16;17.30;99.90
35804;DHT22;21924;51.934;7.414;2023-07-13T06:49:00;17.30;99.90
35804;DHT22;21924;51.934;7.414;2023-07-13T06:51:44;17.20;99.90
35804;DHT22;21924;51.934;7.414;2023-07-13T06:54:28;17.30;99.90
35804;DHT22;21924;51.934;7.414;2023-07-13T06:57:12;17.30;99.90
35804;DHT22;21924;51.934;7.414;2023-07-13T06:59:56;17.30;99.90
35804;DHT22;21924;51.934;7.414;2023-07-13T07:02:40;17.50;99.90
35804;DHT22;21924;51.934;7.414;2023-07-13T07:05:24;17.50;99.90
35804;DHT22;21924;51.934;7.414;2023-07-13T07:08:08;17.60;99.90
35804;DHT22;21924;51.934;7.414;2023-07-13T07:10:52;17.60;99.90
35804;DHT22;21924;51.934;7.414;2023-07-13T07:13:37;17.70;99.90
35804;DHT22;21924;51.934;7.414;2023-07-13T07:16:24;17.90;99.90
35804;DHT22;21924;51.934;7.414;2023-07-13T07:19:08;18.10;99.90
35804;DHT22;21924;51.934;7.414;2023-07-13T07:21:52;18.30;99.90
35804;DHT22;21924;51.934;7.414;2023-07-13T07:24:36;18.60;99.90
35804;DHT22;21924;51.934;7.414;2023-07-13T07:27:20;18.70;99.90
35804;DHT22;21924;51.934;7.414;2023-07-13T07:30:04;18.90;99.90
35804;DHT22;21924;51.934;7.414;2023-07-13T07:32:49;19.10;99.90
35804;DHT22;21924;51.934;7.414;2023-07-13T07:35:33;19.00;99.90
35804;DHT22;21924;51.934;7.414;2023-07-13T07:38:17;18.70;99.90
35804;DHT22;21924;51.934;7.414;2023-07-13T07:41:04;18.60;99.90
35804;DHT22;21924;51.934;7.414;2023-07-13T07:43:48;18.40;99.90
35804;DHT22;21924;51.934;7.414;2023-07-13T07:46:33;18.20;99.90
35804;DHT22;21924;51.934;7.414;2023-07-13T07:49:17;18.50;99.90
35804;DHT22;21924;51.934;7.414;2023-07-13T07:52:01;18.70;99.90
35804;DHT22;21924;51.934;7.414;2023-07-13T07:54:46;18.90;99.90
35804;DHT22;21924;51.934;7.414;2023-07-13T07:57:30;18.90;99.90
35804;DHT22;21924;51.934;7.414;2023-07-13T08:00:14;19.10;99.90
35804;DHT22;21924;51.934;7.414;2023-07-13T08:02:58;19.00;99.90
35804;DHT22;21924;51.934;7.414;2023-07-13T08:05:42;19.00;99.90
35804;DHT22;21924;51.934;7.414;2023-07-13T08:08:26;19.20;99.90
35804;DHT22;21924;51.934;7.414;2023-07-13T08:11:10;19.50;99.90
35804;DHT22;21924;51.934;7.414;2023-07-13T08:13:55;19.80;99.90
35804;DHT22;21924;51.934;7.414;2023-07-13T08:16:39;19.70;99.90
35804;DHT22;21924;51.934;7.414;2023-07-13T08:19:24;19.80;99.90
35804;DHT22;21924;51.934;7.414;2023-07-13T08:22:08;19.80;99.90
35804;DHT22;21924;51.934;7.414;2023-07-13T08:24:52;20.00;99.90
35804;DHT22;21924;51.934;7.414;2023-07-13T08:27:39;20.10;99.90
35804;DHT22;21924;51.934;7.414;2023-07-13T08:30:23;19.90;99.90
35804;DHT22;21924;51.934;7.414;2023-07-13T08:33:07;19.90;99.90
35804;DHT22;21924;51.934;7.414;2023-07-13T08:35:52;20.00;99.90
35804;DHT22;21924;51.934;7.414;2023-07-13T08:38:36;20.10;99.90
35804;DHT22;21924;51.934;7.414;2023-07-13T08:41:21;20.10;99.90
35804;DHT22;21924;51.934;7.414;2023-07-13T08:44:06;20.10;99.90
35804;DHT22;21924;51.934;7.414;2023-07-13T08:46:51;20.30;99.90
35804;DHT22;21924;51.934;7.414;2023-07-13T08:49:36;20.40;99.90
35804;DHT22;21924;51.934;7.414;2023-07-13T08:52:32;20.50;99.90
35804;DHT22;21924;51.934;7.414;2023-07-13T08:55:35;20.60;99.90
35804;DHT22;21924;51.934;7.414;2023-07-13T08:58:22;20.50;99.90
35804;DHT22;21924;51.934;7.414;2023-07-13T09:09:54;20.90;99.90
35804;DHT22;21924;51.934;7.414;2023-07-13T09:21:02;21.50;99.90
35804;DHT22;21924;51.934;7.414;2023-07-13T09:23:47;21.40;99.90
35804;DHT22;21924;51.934;7.414;2023-07-13T09:26:31;21.50;99.90
35804;DHT22;21924;51.934;7.414;2023-07-13T09:29:20;21.80;99.90
35804;DHT22;21924;51.934;7.414;2023-07-13T09:32:06;21.80;99.90
35804;DHT22;21924;51.934;7.414;2023-07-13T09:34:54;21.50;99.90
35804;DHT22;21924;51.934;7.414;2023-07-13T09:37:38;21.50;99.90
35804;DHT22;21924;51.934;7.414;2023-07-13T09:40:32;21.80;99.90
35804;DHT22;21924;51.934;7.414;2023-07-13T09:43:20;21.90;99.90
35804;DHT22;21924;51.934;7.414;2023-07-13T09:46:07;22.10;99.90
35804;DHT22;21924;51.934;7.414;2023-07-13T09:49:03;22.20;99.90
35804;DHT22;21924;51.934;7.414;2023-07-13T09:51:47;22.10;99.90
35804;DHT22;21924;51.934;7.414;2023-07-13T09:54:35;21.90;99.90
35804;DHT22;21924;51.934;7.414;2023-07-13T09:57:23;21.70;99.90
35804;DHT22;21924;51.934;7.414;2023-07-13T10:00:18;21.50;99.90
35804;DHT22;21924;51.934;7.414;2023-07-13T10:03:05;21.70;99.90
35804;DHT22;21924;51.934;7.414;2023-07-13T10:05:50;21.80;99.90
35804;DHT22;21924;51.934;7.414;2023-07-13T10:08:34;21.70;99.90
35804;DHT22;21924;51.934;7.414;2023-07-13T10:11:23;21.60;99.90
35804;DHT22;21924;51.934;7.414;2023-07-13T10:14:18;21.50;99.90
35804;DHT22;21924;51.934;7.414;2023-07-13T10:17:04;21.30;99.90
35804;DHT22;21924;51.934;7.414;2023-07-13T10:19:49;21.00;99.90
35804;DHT22;21924;51.934;7.414;2023-07-13T10:25:37;21.70;99.90
35804;DHT22;21924;51.934;7.414;2023-07-13T10:28:33;22.00;99.90
35804;DHT22;21924;51.934;7.414;2023-07-13T10:31:18;22.50;99.90
35804;DHT22;21924;51.934;7.414;2023-07-13T10:34:03;22.60;99.90
35804;DHT22;21924;51.934;7.414;2023-07-13T10:36:49;23.00;99.90
35804;DHT22;21924;51.934;7.414;2023-07-13T10:39:33;23.10;99.90
35804;DHT22;21924;51.934;7.414;2023-07-13T10:42:23;23.10;99.90
35804;DHT22;21924;51.934;7.414;2023-07-13T10:45:13;23.10;99.90
35804;DHT22;21924;51.934;7.414;2023-07-13T10:47:57;23.00;99.90
35804;DHT22;21924;51.934;7.414;2023-07-13T10:50:43;23.30;99.90
35804;DHT22;21924;51.934;7.414;2023-07-13T10:53:29;23.40;99.90
35804;DHT22;21924;51.934;7.414;2023-07-13T10:56:27;23.50;99.90
35804;DHT22;21924;51.934;7.414;2023-07-13T10:59:14;23.30;99.90
35804;DHT22;21924;51.934;7.414;2023-07-13T11:02:08;23.30;99.90
35804;DHT22;21924;51.934;7.414;2023-07-13T11:04:54;23.30;99.90
35804;DHT22;21924;51.934;7.414;2023-07-13T11:07:51;23.30;99.90
35804;DHT22;21924;51.934;7.414;2023-07-13T11:10:46;23.40;99.90
35804;DHT22;21924;51.934;7.414;2023-07-13T11:27:34;24.30;99.90
35804;DHT22;21924;51.934;7.414;2023-07-13T11:30:31;24.00;99.90
35804;DHT22;21924;51.934;7.414;2023-07-13T11:33:20;23.50;99.90
35804;DHT22;21924;51.934;7.414;2023-07-13T11:36:05;24.00;99.90
35804;DHT22;21924;51.934;7.414;2023-07-13T11:39:00;24.10;99.90
35804;DHT22;21924;51.934;7.414;2023-07-13T11:41:55;24.50;99.90
35804;DHT22;21924;51.934;7.414;2023-07-13T11:44:42;24.60;99.90
35804;DHT22;21924;51.934;7.414;2023-07-13T11:47:26;24.60;99.90
35804;DHT22;21924;51.934;7.414;2023-07-13T11:50:18;25.00;99.90
35804;DHT22;21924;51.934;7.414;2023-07-13T11:53:03;24.60;99.90
35804;DHT22;21924;51.934;7.414;2023-07-13T11:55:48;24.60;99.90
35804;DHT22;21924;51.934;7.414;2023-07-13T11:58:33;24.90;99.90
35804;DHT22;21924;51.934;7.414;2023-07-13T12:01:24;25.20;99.90
35804;DHT22;21924;51.934;7.414;2023-07-13T12:04:12;25.50;99.90
35804;DHT22;21924;51.934;7.414;2023-07-13T12:07:05;24.80;99.90
35804;DHT22;21924;51.934;7.414;2023-07-13T12:09:50;24.00;99.90
35804;DHT22;21924;51.934;7.414;2023-07-13T12:12:35;23.50;99.90
35804;DHT22;21924;51.934;7.414;2023-07-13T12:15:21;23.00;99.90
35804;DHT22;21924;51.934;7.414;2023-07-13T12:18:13;22.60;99.90
35804;DHT22;21924;51.934;7.414;2023-07-13T12:20:58;22.40;99.90
35804;DHT22;21924;51.934;7.414;2023-07-13T12:23:43;22.40;99.90
35804;DHT22;21924;51.934;7.414;2023-07-13T12:26:28;22.80;99.90
35804;DHT22;21924;51.934;7.414;2023-07-13T12:29:15;23.40;99.90
35804;DHT22;21924;51.934;7.414;2023-07-13T12:31:59;23.80;99.90
35804;DHT22;21924;51.934;7.414;2023-07-13T12:34:57;24.00;99.90
35804;DHT22;21924;51.934;7.414;2023-07-13T12:37:42;23.70;99.90
35804;DHT22;21924;51.934;7.414;2023-07-13T12:40:29;23.40;99.90
35804;DHT22;21924;51.934;7.414;2023-07-13T12:43:15;22.70;99.90
35804;DHT22;21924;51.934;7.414;2023-07-13T12:46:01;21.50;99.90
35804;DHT22;21924;51.934;7.414;2023-07-13T12:48:48;20.40;99.90
35804;DHT22;21924;51.934;7.414;2023-07-13T12:51:32;20.10;99.90
35804;DHT22;21924;51.934;7.414;2023-07-13T12:54:17;20.10;99.90
35804;DHT22;21924;51.934;7.414;2023-07-13T12:57:03;20.20;99.90
35804;DHT22;21924;51.934;7.414;2023-07-13T12:59:50;20.30;99.90
35804;DHT22;21924;51.934;7.414;2023-07-13T13:02:35;20.40;99.90
35804;DHT22;21924;51.934;7.414;2023-07-13T13:05:20;20.50;99.90
35804;DHT22;21924;51.934;7.414;2023-07-13T13:08:08;20.40;99.90
35804;DHT22;21924;51.934;7.414;2023-07-13T13:10:54;20.10;99.90
35804;DHT22;21924;51.934;7.414;2023-07-13T13:13:38;19.80;99.90
35804;DHT22;21924;51.934;7.414;2023-07-13T13:16:24;19.60;99.90
35804;DHT22;21924;51.934;7.414;2023-07-13T13:22:00;19.20;99.90
35804;DHT22;21924;51.934;7.414;2023-07-13T13:24:44;19.00;99.90
35804;DHT22;21924;51.934;7.414;2023-07-13T13:27:28;18.90;99.90
35804;DHT22;21924;51.934;7.414;2023-07-13T13:30:14;19.00;99.90
35804;DHT22;21924;51.934;7.414;2023-07-13T13:32:59;19.00;99.90
35804;DHT22;21924;51.934;7.414;2023-07-13T13:35:43;19.00;99.90
35804;DHT22;21924;51.934;7.414;2023-07-13T13:38:28;19.00;99.90
35804;DHT22;21924;51.934;7.414;2023-07-13T13:41:12;19.10;99.90
35804;DHT22;21924;51.934;7.414;2023-07-13T13:43:57;19.00;99.90
35804;DHT22;21924;51.934;7.414;2023-07-13T13:46:41;18.90;99.90
35804;DHT22;21924;51.934;7.414;2023-07-13T13:49:26;18.90;99.90
35804;DHT22;21924;51.934;7.414;2023-07-13T13:52:11;18.80;99.90
35804;DHT22;21924;51.934;7.414;2023-07-13T13:54:55;18.80;99.90
35804;DHT22;21924;51.934;7.414;2023-07-13T13:57:40;18.60;99.90
35804;DHT22;21924;51.934;7.414;2023-07-13T14:00:24;18.60;99.90
35804;DHT22;21924;51.934;7.414;2023-07-13T14:03:15;18.50;99.90
35804;DHT22;21924;51.934;7.414;2023-07-13T14:06:01;18.60;99.90
35804;DHT22;21924;51.934;7.414;2023-07-13T14:08:45;18.60;99.90
35804;DHT22;21924;51.934;7.414;2023-07-13T14:11:31;18.70;99.90
35804;DHT22;21924;51.934;7.414;2023-07-13T14:14:17;18.80;99.90
35804;DHT22;21924;51.934;7.414;2023-07-13T14:17:03;19.00;99.90
35804;DHT22;21924;51.934;7.414;2023-07-13T14:19:48;19.30;99.90
35804;DHT22;21924;51.934;7.414;2023-07-13T14:22:34;19.10;99.90
35804;DHT22;21924;51.934;7.414;2023-07-13T14:25:19;19.40;99.90
35804;DHT22;21924;51.934;7.414;2023-07-13T14:28:09;19.70;99.90
35804;DHT22;21924;51.934;7.414;2023-07-13T14:30:59;20.10;99.90
35804;DHT22;21924;51.934;7.414;2023-07-13T14:33:45;21.20;99.90
35804;DHT22;21924;51.934;7.414;2023-07-13T14:36:32;21.90;99.90
35804;DHT22;21924;51.934;7.414;2023-07-13T14:39:20;22.40;99.90
35804;DHT22;21924;51.934;7.414;2023-07-13T14:42:04;22.10;99.90
35804;DHT22;21924;51.934;7.414;2023-07-13T14:44:49;22.10;99.90
35804;DHT22;21924;51.934;7.414;2023-07-13T14:47:33;22.30;99.90
35804;DHT22;21924;51.934;7.414;2023-07-13T14:50:20;22.40;99.90
35804;DHT22;21924;51.934;7.414;2023-07-13T14:53:04;22.20;99.90
35804;DHT22;21924;51.934;7.414;2023-07-13T14:55:48;21.90;99.90
35804;DHT22;21924;51.934;7.414;2023-07-13T14:58:32;21.70;99.90
35804;DHT22;21924;51.934;7.414;2023-07-13T15:01:16;21.60;99.90
35804;DHT22;21924;51.934;7.414;2023-07-13T15:04:00;21.90;99.90
35804;DHT22;21924;51.934;7.414;2023-07-13T15:06:55;22.90;99.90
35804;DHT22;21924;51.934;7.414;2023-07-13T15:09:40;24.20;99.90
35804;DHT22;21924;51.934;7.414;2023-07-13T15:12:23;25.20;99.90
35804;DHT22;21924;51.934;7.414;2023-07-13T15:15:08;26.20;99.90
35804;DHT22;21924;51.934;7.414;2023-07-13T15:17:52;26.70;99.90
35804;DHT22;21924;51.934;7.414;2023-07-13T15:20:37;26.70;99.90
35804;DHT22;21924;51.934;7.414;2023-07-13T15:23:21;26.70;99.90
35804;DHT22;21924;51.934;7.414;2023-07-13T15:26:08;26.30;99.90
35804;DHT22;21924;51.934;7.414;2023-07-13T15:28:55;25.70;99.90
35804;DHT22;21924;51.934;7.414;2023-07-13T15:31:39;24.80;99.90
35804;DHT22;21924;51.934;7.414;2023-07-13T15:34:25;23.80;99.90
35804;DHT22;21924;51.934;7.414;2023-07-13T15:37:14;23.50;99.90
35804;DHT22;21924;51.934;7.414;2023-07-13T15:39:58;23.70;99.90
35804;DHT22;21924;51.934;7.414;2023-07-13T15:42:44;23.90;99.90
35804;DHT22;21924;51.934;7.414;2023-07-13T15:45:29;23.50;99.90
35804;DHT22;21924;51.934;7.414;2023-07-13T15:48:21;23.00;99.90
35804;DHT22;21924;51.934;7.414;2023-07-13T15:51:11;22.50;99.90
35804;DHT22;21924;51.934;7.414;2023-07-13T15:53:59;22.20;99.90
35804;DHT22;21924;51.934;7.414;2023-07-13T15:56:53;22.20;99.90
35804;DHT22;21924;51.934;7.414;2023-07-13T15:59:37;22.00;99.90
35804;DHT22;21924;51.934;7.414;2023-07-13T16:02:21;21.70;99.90
35804;DHT22;21924;51.934;7.414;2023-07-13T16:05:05;21.50;99.90
35804;DHT22;21924;51.934;7.414;2023-07-13T16:07:51;21.20;99.90
35804;DHT22;21924;51.934;7.414;2023-07-13T16:10:37;20.90;99.90
35804;DHT22;21924;51.934;7.414;2023-07-13T16:13:24;20.70;99.90
35804;DHT22;21924;51.934;7.414;2023-07-13T16:16:11;20.60;99.90
35804;DHT22;21924;51.934;7.414;2023-07-13T16:18:57;20.40;99.90
35804;DHT22;21924;51.934;7.414;2023-07-13T16:21:46;20.10;99.90
35804;DHT22;21924;51.934;7.414;2023-07-13T16:24:32;20.00;99.90
35804;DHT22;21924;51.934;7.414;2023-07-13T16:27:16;19.90;99.90
35804;DHT22;21924;51.934;7.414;2023-07-13T16:33:01;19.30;99.90
35804;DHT22;21924;51.934;7.414;2023-07-13T16:35:49;19.10;99.90
35804;DHT22;21924;51.934;7.414;2023-07-13T16:38:33;18.80;99.90
35804;DHT22;21924;51.934;7.414;2023-07-13T16:41:18;18.60;99.90
35804;DHT22;21924;51.934;7.414;2023-07-13T16:44:12;18.40;99.90
35804;DHT22;21924;51.934;7.414;2023-07-13T16:46:56;18.20;99.90
35804;DHT22;21924;51.934;7.414;2023-07-13T16:49:45;17.90;99.90
35804;DHT22;21924;51.934;7.414;2023-07-13T16:52:31;18.00;99.90
35804;DHT22;21924;51.934;7.414;2023-07-13T16:55:17;17.70;99.90
35804;DHT22;21924;51.934;7.414;2023-07-13T16:58:02;17.40;99.90
35804;DHT22;21924;51.934;7.414;2023-07-13T17:00:48;17.40;99.90
35804;DHT22;21924;51.934;7.414;2023-07-13T17:03:36;17.30;99.90
35804;DHT22;21924;51.934;7.414;2023-07-13T17:06:23;17.30;99.90
35804;DHT22;21924;51.934;7.414;2023-07-13T17:09:12;17.30;99.90
35804;DHT22;21924;51.934;7.414;2023-07-13T17:11:59;17.40;99.90
35804;DHT22;21924;51.934;7.414;2023-07-13T17:14:43;17.50;99.90
35804;DHT22;21924;51.934;7.414;2023-07-13T17:17:33;17.70;99.90
35804;DHT22;21924;51.934;7.414;2023-07-13T17:23:12;18.20;99.90
35804;DHT22;21924;51.934;7.414;2023-07-13T17:25:59;18.60;99.90
35804;DHT22;21924;51.934;7.414;2023-07-13T17:28:43;18.70;99.90
35804;DHT22;21924;51.934;7.414;2023-07-13T17:31:28;18.50;99.90
35804;DHT22;21924;51.934;7.414;2023-07-13T17:34:15;18.50;99.90
35804;DHT22;21924;51.934;7.414;2023-07-13T17:37:04;18.40;99.90
35804;DHT22;21924;51.934;7.414;2023-07-13T17:39:48;18.40;99.90
35804;DHT22;21924;51.934;7.414;2023-07-13T17:42:32;18.50;99.90
35804;DHT22;21924;51.934;7.414;2023-07-13T17:45:16;18.70;99.90
35804;DHT22;21924;51.934;7.414;2023-07-13T17:48:03;18.90;99.90
35804;DHT22;21924;51.934;7.414;2023-07-13T17:50:50;18.80;99.90
35804;DHT22;21924;51.934;7.414;2023-07-13T17:53:35;19.00;99.90
35804;DHT22;21924;51.934;7.414;2023-07-13T17:56:20;19.00;99.90
35804;DHT22;21924;51.934;7.414;2023-07-13T17:59:04;18.80;99.90
35804;DHT22;21924;51.934;7.414;2023-07-13T18:01:49;18.70;99.90
35804;DHT22;21924;51.934;7.414;2023-07-13T18:04:33;18.50;99.90
35804;DHT22;21924;51.934;7.414;2023-07-13T18:07:21;18.50;99.90